sensor_id;sensor_type;location;lat;lon;timestamp;P1;durP1;ratioP1;P2;durP2;ratioP2
40471;SDS011;26174;42.908;23.800;2024-01-15T00:01:45;27.58;;;11.90;;
40471;SDS011;26174;42.908;23.800;2024-01-15T00:04:10;34.42;;;12.77;;
40471;SDS011;26174;42.908;23.800;2024-01-15T00:06:36;28.70;;;13.68;;
40471;SDS011;26174;42.908;23.800;2024-01-15T00:09:02;26.40;;;11.05;;
40471;SDS011;26174;42.908;23.800;2024-01-15T00:11:27;23.13;;;10.35;;
40471;SDS011;26174;42.908;23.800;2024-01-15T00:13:53;24.60;;;10.35;;
40471;SDS011;26174;42.908;23.800;2024-01-15T00:16:18;29.65;;;12.55;;
40471;SDS011;26174;42.908;23.800;2024-01-15T00:18:44;30.30;;;14.73;;
40471;SDS011;26174;42.908;23.800;2024-01-15T00:21:10;28.90;;;12.70;;
40471;SDS011;26174;42.908;23.800;2024-01-15T00:23:36;28.55;;;11.82;;
40471;SDS011;26174;42.908;23.800;2024-01-15T00:26:01;25.23;;;11.77;;
40471;SDS011;26174;42.908;23.800;2024-01-15T00:28:27;28.48;;;10.77;;
40471;SDS011;26174;42.908;23.800;2024-01-15T00:30:52;16.17;;;6.97;;
40471;SDS011;26174;42.908;23.800;2024-01-15T00:33:18;26.50;;;10.82;;
40471;SDS011;26174;42.908;23.800;2024-01-15T00:35:44;49.03;;;16.35;;
40471;SDS011;26174;42.908;23.800;2024-01-15T00:38:10;35.30;;;12.82;;
40471;SDS011;26174;42.908;23.800;2024-01-15T00:40:36;25.90;;;10.38;;
40471;SDS011;26174;42.908;23.800;2024-01-15T00:43:02;26.30;;;10.20;;
40471;SDS011;26174;42.908;23.800;2024-01-15T00:45:28;25.95;;;9.20;;
40471;SDS011;26174;42.908;23.800;2024-01-15T00:47:54;22.00;;;9.82;;
40471;SDS011;26174;42.908;23.800;2024-01-15T00:50:21;54.65;;;16.05;;
40471;SDS011;26174;42.908;23.800;2024-01-15T00:52:47;107.53;;;28.60;;
40471;SDS011;26174;42.908;23.800;2024-01-15T00:55:12;35.78;;;13.20;;
40471;SDS011;26174;42.908;23.800;2024-01-15T00:57:38;36.63;;;13.07;;
40471;SDS011;26174;42.908;23.800;2024-01-15T01:00:04;20.13;;;7.72;;
40471;SDS011;26174;42.908;23.800;2024-01-15T01:02:30;39.17;;;12.65;;
40471;SDS011;26174;42.908;23.800;2024-01-15T01:04:55;44.65;;;14.70;;
40471;SDS011;26174;42.908;23.800;2024-01-15T01:07:21;37.53;;;13.23;;
40471;SDS011;26174;42.908;23.800;2024-01-15T01:09:47;41.90;;;15.00;;
40471;SDS011;26174;42.908;23.800;2024-01-15T01:12:13;38.28;;;12.85;;
40471;SDS011;26174;42.908;23.800;2024-01-15T01:14:38;35.97;;;15.57;;
40471;SDS011;26174;42.908;23.800;2024-01-15T01:17:04;36.13;;;14.75;;
40471;SDS011;26174;42.908;23.800;2024-01-15T01:19:30;20.42;;;10.23;;
40471;SDS011;26174;42.908;23.800;2024-01-15T01:21:55;13.88;;;7.20;;
40471;SDS011;26174;42.908;23.800;2024-01-15T01:24:21;20.50;;;8.05;;
40471;SDS011;26174;42.908;23.800;2024-01-15T01:26:46;29.00;;;9.77;;
40471;SDS011;26174;42.908;23.800;2024-01-15T01:29:12;32.90;;;13.13;;
40471;SDS011;26174;42.908;23.800;2024-01-15T01:31:42;33.75;;;13.23;;
40471;SDS011;26174;42.908;23.800;2024-01-15T01:34:10;32.13;;;11.63;;
40471;SDS011;26174;42.908;23.800;2024-01-15T01:36:39;28.42;;;11.48;;
40471;SDS011;26174;42.908;23.800;2024-01-15T01:39:04;25.13;;;10.98;;
40471;SDS011;26174;42.908;23.800;2024-01-15T01:41:30;31.65;;;11.60;;
40471;SDS011;26174;42.908;23.800;2024-01-15T01:43:56;26.92;;;11.57;;
40471;SDS011;26174;42.908;23.800;2024-01-15T01:46:22;35.33;;;14.63;;
40471;SDS011;26174;42.908;23.800;2024-01-15T01:48:48;32.90;;;14.25;;
40471;SDS011;26174;42.908;23.800;2024-01-15T01:51:14;30.80;;;13.60;;
40471;SDS011;26174;42.908;23.800;2024-01-15T01:53:40;58.88;;;21.08;;
40471;SDS011;26174;42.908;23.800;2024-01-15T01:56:05;92.32;;;27.38;;
40471;SDS011;26174;42.908;23.800;2024-01-15T01:58:32;33.15;;;13.63;;
40471;SDS011;26174;42.908;23.800;2024-01-15T02:00:57;22.05;;;9.52;;
40471;SDS011;26174;42.908;23.800;2024-01-15T02:03:24;41.03;;;15.38;;
40471;SDS011;26174;42.908;23.800;2024-01-15T02:05:51;26.60;;;10.75;;
40471;SDS011;26174;42.908;23.800;2024-01-15T02:08:18;22.38;;;8.60;;
40471;SDS011;26174;42.908;23.800;2024-01-15T02:10:43;23.38;;;10.60;;
40471;SDS011;26174;42.908;23.800;2024-01-15T02:13:09;23.70;;;10.20;;
40471;SDS011;26174;42.908;23.800;2024-01-15T02:15:34;23.67;;;8.05;;
40471;SDS011;26174;42.908;23.800;2024-01-15T02:18:01;14.60;;;6.03;;
40471;SDS011;26174;42.908;23.800;2024-01-15T02:20:28;17.42;;;7.75;;
40471;SDS011;26174;42.908;23.800;2024-01-15T02:22:54;17.15;;;8.02;;
40471;SDS011;26174;42.908;23.800;2024-01-15T02:25:26;18.48;;;8.35;;
40471;SDS011;26174;42.908;23.800;2024-01-15T02:27:51;40.63;;;14.48;;
40471;SDS011;26174;42.908;23.800;2024-01-15T02:30:17;28.23;;;11.63;;
40471;SDS011;26174;42.908;23.800;2024-01-15T02:32:43;29.05;;;11.30;;
40471;SDS011;26174;42.908;23.800;2024-01-15T02:35:08;52.28;;;17.13;;
40471;SDS011;26174;42.908;23.800;2024-01-15T02:37:34;52.80;;;17.33;;
40471;SDS011;26174;42.908;23.800;2024-01-15T02:39:59;30.33;;;12.48;;
40471;SDS011;26174;42.908;23.800;2024-01-15T02:42:26;20.35;;;9.05;;
40471;SDS011;26174;42.908;23.800;2024-01-15T02:44:51;31.55;;;11.35;;
40471;SDS011;26174;42.908;23.800;2024-01-15T02:47:17;56.42;;;17.63;;
40471;SDS011;26174;42.908;23.800;2024-01-15T02:49:42;50.05;;;15.57;;
40471;SDS011;26174;42.908;23.800;2024-01-15T02:52:08;63.35;;;17.38;;
40471;SDS011;26174;42.908;23.800;2024-01-15T02:54:34;53.78;;;17.60;;
40471;SDS011;26174;42.908;23.800;2024-01-15T02:56:59;49.72;;;15.15;;
40471;SDS011;26174;42.908;23.800;2024-01-15T02:59:25;46.78;;;17.95;;
40471;SDS011;26174;42.908;23.800;2024-01-15T03:01:50;95.32;;;24.15;;
40471;SDS011;26174;42.908;23.800;2024-01-15T03:04:16;111.85;;;27.65;;
40471;SDS011;26174;42.908;23.800;2024-01-15T03:06:42;104.88;;;26.88;;
40471;SDS011;26174;42.908;23.800;2024-01-15T03:09:07;134.00;;;33.78;;
40471;SDS011;26174;42.908;23.800;2024-01-15T03:11:39;223.88;;;47.40;;
40471;SDS011;26174;42.908;23.800;2024-01-15T03:14:05;102.72;;;32.08;;
40471;SDS011;26174;42.908;23.800;2024-01-15T03:16:30;194.75;;;53.80;;
40471;SDS011;26174;42.908;23.800;2024-01-15T03:18:56;111.90;;;38.80;;
40471;SDS011;26174;42.908;23.800;2024-01-15T03:21:21;119.20;;;33.45;;
40471;SDS011;26174;42.908;23.800;2024-01-15T03:23:47;109.90;;;37.15;;
40471;SDS011;26174;42.908;23.800;2024-01-15T03:26:13;113.50;;;41.67;;
40471;SDS011;26174;42.908;23.800;2024-01-15T03:28:38;104.88;;;34.90;;
40471;SDS011;26174;42.908;23.800;2024-01-15T03:31:04;128.68;;;39.65;;
40471;SDS011;26174;42.908;23.800;2024-01-15T03:33:32;92.25;;;35.33;;
40471;SDS011;26174;42.908;23.800;2024-01-15T03:35:58;88.47;;;31.20;;
40471;SDS011;26174;42.908;23.800;2024-01-15T03:38:27;63.75;;;24.40;;
40471;SDS011;26174;42.908;23.800;2024-01-15T03:40:55;65.53;;;22.98;;
40471;SDS011;26174;42.908;23.800;2024-01-15T03:43:21;62.00;;;22.25;;
40471;SDS011;26174;42.908;23.800;2024-01-15T03:45:46;64.22;;;21.75;;
40471;SDS011;26174;42.908;23.800;2024-01-15T03:48:12;61.15;;;22.80;;
40471;SDS011;26174;42.908;23.800;2024-01-15T03:50:38;47.42;;;19.63;;
40471;SDS011;26174;42.908;23.800;2024-01-15T03:53:04;53.10;;;18.95;;
40471;SDS011;26174;42.908;23.800;2024-01-15T03:55:29;46.70;;;18.35;;
40471;SDS011;26174;42.908;23.800;2024-01-15T03:57:55;43.15;;;17.73;;
40471;SDS011;26174;42.908;23.800;2024-01-15T04:00:21;55.30;;;20.70;;
40471;SDS011;26174;42.908;23.800;2024-01-15T04:02:46;71.28;;;29.10;;
40471;SDS011;26174;42.908;23.800;2024-01-15T04:05:12;80.10;;;33.03;;
40471;SDS011;26174;42.908;23.800;2024-01-15T04:07:38;73.55;;;29.27;;
40471;SDS011;26174;42.908;23.800;2024-01-15T04:10:03;72.13;;;28.35;;
40471;SDS011;26174;42.908;23.800;2024-01-15T04:12:29;83.30;;;27.65;;
40471;SDS011;26174;42.908;23.800;2024-01-15T04:14:55;77.35;;;27.10;;
40471;SDS011;26174;42.908;23.800;2024-01-15T04:17:20;76.65;;;25.92;;
40471;SDS011;26174;42.908;23.800;2024-01-15T04:19:48;69.28;;;26.42;;
40471;SDS011;26174;42.908;23.800;2024-01-15T04:22:14;54.13;;;21.98;;
40471;SDS011;26174;42.908;23.800;2024-01-15T04:24:40;57.60;;;22.85;;
40471;SDS011;26174;42.908;23.800;2024-01-15T04:27:05;54.38;;;22.95;;
40471;SDS011;26174;42.908;23.800;2024-01-15T04:29:32;52.45;;;20.67;;
40471;SDS011;26174;42.908;23.800;2024-01-15T04:31:57;57.05;;;23.10;;
40471;SDS011;26174;42.908;23.800;2024-01-15T04:34:23;43.90;;;17.30;;
40471;SDS011;26174;42.908;23.800;2024-01-15T04:36:50;46.90;;;20.33;;
40471;SDS011;26174;42.908;23.800;2024-01-15T04:39:16;41.28;;;16.70;;
40471;SDS011;26174;42.908;23.800;2024-01-15T04:41:41;50.80;;;20.48;;
40471;SDS011;26174;42.908;23.800;2024-01-15T04:44:07;55.78;;;19.80;;
40471;SDS011;26174;42.908;23.800;2024-01-15T04:46:32;47.42;;;19.08;;
40471;SDS011;26174;42.908;23.800;2024-01-15T04:48:58;49.90;;;19.15;;
40471;SDS011;26174;42.908;23.800;2024-01-15T04:51:24;47.42;;;18.95;;
40471;SDS011;26174;42.908;23.800;2024-01-15T04:53:49;40.50;;;17.20;;
40471;SDS011;26174;42.908;23.800;2024-01-15T04:56:15;43.35;;;17.60;;
40471;SDS011;26174;42.908;23.800;2024-01-15T04:58:40;52.20;;;18.88;;
40471;SDS011;26174;42.908;23.800;2024-01-15T05:01:07;46.28;;;18.35;;
40471;SDS011;26174;42.908;23.800;2024-01-15T05:03:33;50.70;;;18.00;;
40471;SDS011;26174;42.908;23.800;2024-01-15T05:05:59;44.15;;;17.15;;
40471;SDS011;26174;42.908;23.800;2024-01-15T05:08:24;33.65;;;13.73;;
40471;SDS011;26174;42.908;23.800;2024-01-15T05:10:50;32.13;;;14.25;;
40471;SDS011;26174;42.908;23.800;2024-01-15T05:13:15;39.95;;;17.77;;
40471;SDS011;26174;42.908;23.800;2024-01-15T05:15:41;44.30;;;19.20;;
40471;SDS011;26174;42.908;23.800;2024-01-15T05:18:07;42.70;;;17.63;;
40471;SDS011;26174;42.908;23.800;2024-01-15T05:20:32;45.00;;;17.15;;
40471;SDS011;26174;42.908;23.800;2024-01-15T05:22:58;25.67;;;12.10;;
40471;SDS011;26174;42.908;23.800;2024-01-15T05:25:23;51.67;;;22.83;;
40471;SDS011;26174;42.908;23.800;2024-01-15T05:27:49;56.20;;;19.80;;
40471;SDS011;26174;42.908;23.800;2024-01-15T05:30:15;48.58;;;20.30;;
40471;SDS011;26174;42.908;23.800;2024-01-15T05:32:41;49.80;;;20.67;;
40471;SDS011;26174;42.908;23.800;2024-01-15T05:35:07;72.55;;;28.80;;
40471;SDS011;26174;42.908;23.800;2024-01-15T05:37:33;62.85;;;26.77;;
40471;SDS011;26174;42.908;23.800;2024-01-15T05:39:58;73.50;;;28.98;;
40471;SDS011;26174;42.908;23.800;2024-01-15T05:42:24;73.15;;;28.80;;
40471;SDS011;26174;42.908;23.800;2024-01-15T05:44:49;89.45;;;36.17;;
40471;SDS011;26174;42.908;23.800;2024-01-15T05:47:15;72.13;;;30.40;;
40471;SDS011;26174;42.908;23.800;2024-01-15T05:49:41;114.97;;;47.40;;
40471;SDS011;26174;42.908;23.800;2024-01-15T05:52:06;132.55;;;56.00;;
40471;SDS011;26174;42.908;23.800;2024-01-15T05:54:32;109.97;;;45.88;;
40471;SDS011;26174;42.908;23.800;2024-01-15T05:56:57;109.20;;;44.55;;
40471;SDS011;26174;42.908;23.800;2024-01-15T05:59:23;90.47;;;39.42;;
40471;SDS011;26174;42.908;23.800;2024-01-15T06:01:49;90.22;;;37.00;;
40471;SDS011;26174;42.908;23.800;2024-01-15T06:04:14;101.28;;;41.63;;
40471;SDS011;26174;42.908;23.800;2024-01-15T06:06:40;69.93;;;31.83;;
40471;SDS011;26174;42.908;23.800;2024-01-15T06:09:05;104.32;;;46.13;;
40471;SDS011;26174;42.908;23.800;2024-01-15T06:11:31;95.00;;;42.00;;
40471;SDS011;26174;42.908;23.800;2024-01-15T06:13:57;84.72;;;35.70;;
40471;SDS011;26174;42.908;23.800;2024-01-15T06:16:23;117.35;;;43.88;;
40471;SDS011;26174;42.908;23.800;2024-01-15T06:18:49;104.05;;;43.22;;
40471;SDS011;26174;42.908;23.800;2024-01-15T06:21:15;99.60;;;38.25;;
40471;SDS011;26174;42.908;23.800;2024-01-15T06:23:41;97.63;;;39.17;;
40471;SDS011;26174;42.908;23.800;2024-01-15T06:26:07;155.75;;;69.20;;
40471;SDS011;26174;42.908;23.800;2024-01-15T06:28:33;100.80;;;42.65;;
40471;SDS011;26174;42.908;23.800;2024-01-15T06:30:58;69.57;;;31.85;;
40471;SDS011;26174;42.908;23.800;2024-01-15T06:33:24;83.75;;;38.22;;
40471;SDS011;26174;42.908;23.800;2024-01-15T06:35:50;137.13;;;53.00;;
40471;SDS011;26174;42.908;23.800;2024-01-15T06:38:16;140.65;;;52.42;;
40471;SDS011;26174;42.908;23.800;2024-01-15T06:40:41;141.15;;;58.25;;
40471;SDS011;26174;42.908;23.800;2024-01-15T06:43:14;156.35;;;64.47;;
40471;SDS011;26174;42.908;23.800;2024-01-15T06:48:08;155.43;;;59.00;;
40471;SDS011;26174;42.908;23.800;2024-01-15T06:50:34;192.75;;;69.70;;
40471;SDS011;26174;42.908;23.800;2024-01-15T06:53:00;174.80;;;70.45;;
40471;SDS011;26174;42.908;23.800;2024-01-15T06:55:25;161.45;;;65.22;;
40471;SDS011;26174;42.908;23.800;2024-01-15T06:57:51;156.88;;;64.10;;
40471;SDS011;26174;42.908;23.800;2024-01-15T07:00:17;150.15;;;58.75;;
40471;SDS011;26174;42.908;23.800;2024-01-15T07:02:44;145.57;;;58.90;;
40471;SDS011;26174;42.908;23.800;2024-01-15T07:05:10;163.65;;;63.33;;
40471;SDS011;26174;42.908;23.800;2024-01-15T07:07:36;118.80;;;51.70;;
40471;SDS011;26174;42.908;23.800;2024-01-15T07:10:02;135.52;;;55.80;;
40471;SDS011;26174;42.908;23.800;2024-01-15T07:12:29;86.07;;;35.70;;
40471;SDS011;26174;42.908;23.800;2024-01-15T07:14:55;122.82;;;53.65;;
40471;SDS011;26174;42.908;23.800;2024-01-15T07:17:21;112.07;;;48.83;;
40471;SDS011;26174;42.908;23.800;2024-01-15T07:19:47;92.95;;;43.00;;
40471;SDS011;26174;42.908;23.800;2024-01-15T07:22:12;63.05;;;28.73;;
40471;SDS011;26174;42.908;23.800;2024-01-15T07:24:38;34.35;;;17.77;;
40471;SDS011;26174;42.908;23.800;2024-01-15T07:27:06;27.45;;;15.15;;
40471;SDS011;26174;42.908;23.800;2024-01-15T07:29:32;33.85;;;16.10;;
40471;SDS011;26174;42.908;23.800;2024-01-15T07:32:02;38.30;;;17.60;;
40471;SDS011;26174;42.908;23.800;2024-01-15T07:34:28;40.72;;;17.73;;
40471;SDS011;26174;42.908;23.800;2024-01-15T07:36:54;41.28;;;17.85;;
40471;SDS011;26174;42.908;23.800;2024-01-15T07:39:20;43.13;;;17.10;;
40471;SDS011;26174;42.908;23.800;2024-01-15T07:41:47;28.00;;;11.88;;
40471;SDS011;26174;42.908;23.800;2024-01-15T07:44:13;30.00;;;13.77;;
40471;SDS011;26174;42.908;23.800;2024-01-15T07:46:40;32.30;;;15.52;;
40471;SDS011;26174;42.908;23.800;2024-01-15T07:49:08;34.97;;;16.25;;
40471;SDS011;26174;42.908;23.800;2024-01-15T07:51:34;55.22;;;23.85;;
40471;SDS011;26174;42.908;23.800;2024-01-15T07:54:00;69.60;;;32.60;;
40471;SDS011;26174;42.908;23.800;2024-01-15T07:56:25;105.07;;;47.22;;
40471;SDS011;26174;42.908;23.800;2024-01-15T07:58:52;34.67;;;14.23;;
40471;SDS011;26174;42.908;23.800;2024-01-15T08:01:18;22.38;;;10.07;;
40471;SDS011;26174;42.908;23.800;2024-01-15T08:03:43;33.70;;;16.73;;
40471;SDS011;26174;42.908;23.800;2024-01-15T08:06:09;37.30;;;16.42;;
40471;SDS011;26174;42.908;23.800;2024-01-15T08:08:35;41.10;;;18.35;;
40471;SDS011;26174;42.908;23.800;2024-01-15T08:11:01;39.42;;;18.48;;
40471;SDS011;26174;42.908;23.800;2024-01-15T08:13:27;37.00;;;16.83;;
40471;SDS011;26174;42.908;23.800;2024-01-15T08:15:53;34.38;;;16.35;;
40471;SDS011;26174;42.908;23.800;2024-01-15T08:18:18;33.97;;;16.40;;
40471;SDS011;26174;42.908;23.800;2024-01-15T08:20:45;43.88;;;18.60;;
40471;SDS011;26174;42.908;23.800;2024-01-15T08:23:11;32.05;;;15.18;;
40471;SDS011;26174;42.908;23.800;2024-01-15T08:25:37;27.13;;;13.38;;
40471;SDS011;26174;42.908;23.800;2024-01-15T08:28:02;31.38;;;13.43;;
40471;SDS011;26174;42.908;23.800;2024-01-15T08:30:28;33.03;;;14.85;;
40471;SDS011;26174;42.908;23.800;2024-01-15T08:32:55;33.63;;;12.02;;
40471;SDS011;26174;42.908;23.800;2024-01-15T08:35:21;23.48;;;10.65;;
40471;SDS011;26174;42.908;23.800;2024-01-15T08:37:51;17.13;;;7.53;;
40471;SDS011;26174;42.908;23.800;2024-01-15T08:40:17;24.80;;;10.32;;
40471;SDS011;26174;42.908;23.800;2024-01-15T08:42:43;9.70;;;4.68;;
40471;SDS011;26174;42.908;23.800;2024-01-15T08:45:09;14.55;;;7.15;;
40471;SDS011;26174;42.908;23.800;2024-01-15T08:47:35;16.35;;;6.93;;
40471;SDS011;26174;42.908;23.800;2024-01-15T08:50:01;23.60;;;7.38;;
40471;SDS011;26174;42.908;23.800;2024-01-15T08:52:28;17.00;;;5.97;;
40471;SDS011;26174;42.908;23.800;2024-01-15T08:54:54;11.18;;;5.53;;
40471;SDS011;26174;42.908;23.800;2024-01-15T08:57:20;11.77;;;5.50;;
40471;SDS011;26174;42.908;23.800;2024-01-15T08:59:47;7.18;;;3.92;;
40471;SDS011;26174;42.908;23.800;2024-01-15T09:02:13;5.75;;;3.22;;
40471;SDS011;26174;42.908;23.800;2024-01-15T09:04:38;4.75;;;2.22;;
40471;SDS011;26174;42.908;23.800;2024-01-15T09:07:04;7.82;;;3.10;;
40471;SDS011;26174;42.908;23.800;2024-01-15T09:09:30;7.18;;;3.50;;
40471;SDS011;26174;42.908;23.800;2024-01-15T09:11:55;6.68;;;3.13;;
40471;SDS011;26174;42.908;23.800;2024-01-15T09:14:21;6.28;;;2.90;;
40471;SDS011;26174;42.908;23.800;2024-01-15T09:16:50;8.43;;;4.20;;
40471;SDS011;26174;42.908;23.800;2024-01-15T09:19:17;7.82;;;4.25;;
40471;SDS011;26174;42.908;23.800;2024-01-15T09:21:42;6.95;;;3.95;;
40471;SDS011;26174;42.908;23.800;2024-01-15T09:24:08;7.57;;;3.20;;
40471;SDS011;26174;42.908;23.800;2024-01-15T09:26:33;4.57;;;2.60;;
40471;SDS011;26174;42.908;23.800;2024-01-15T09:28:59;7.78;;;4.28;;
40471;SDS011;26174;42.908;23.800;2024-01-15T09:31:26;7.20;;;4.03;;
40471;SDS011;26174;42.908;23.800;2024-01-15T09:33:52;6.13;;;3.67;;
40471;SDS011;26174;42.908;23.800;2024-01-15T09:36:21;10.85;;;5.13;;
40471;SDS011;26174;42.908;23.800;2024-01-15T09:38:48;3.90;;;2.90;;
40471;SDS011;26174;42.908;23.800;2024-01-15T09:41:14;7.70;;;3.53;;
40471;SDS011;26174;42.908;23.800;2024-01-15T09:43:40;6.82;;;3.25;;
40471;SDS011;26174;42.908;23.800;2024-01-15T09:46:06;8.85;;;3.95;;
40471;SDS011;26174;42.908;23.800;2024-01-15T09:48:31;5.63;;;2.97;;
40471;SDS011;26174;42.908;23.800;2024-01-15T09:50:59;9.82;;;5.20;;
40471;SDS011;26174;42.908;23.800;2024-01-15T09:53:26;6.93;;;2.72;;
40471;SDS011;26174;42.908;23.800;2024-01-15T09:55:52;6.20;;;3.17;;
40471;SDS011;26174;42.908;23.800;2024-01-15T09:58:18;4.10;;;2.30;;
40471;SDS011;26174;42.908;23.800;2024-01-15T10:00:44;5.57;;;3.05;;
40471;SDS011;26174;42.908;23.800;2024-01-15T10:03:10;12.80;;;4.35;;
40471;SDS011;26174;42.908;23.800;2024-01-15T10:05:37;4.28;;;2.50;;
40471;SDS011;26174;42.908;23.800;2024-01-15T10:08:03;6.75;;;3.58;;
40471;SDS011;26174;42.908;23.800;2024-01-15T10:10:29;5.20;;;2.58;;
40471;SDS011;26174;42.908;23.800;2024-01-15T10:12:56;12.10;;;3.58;;
40471;SDS011;26174;42.908;23.800;2024-01-15T10:15:25;45.03;;;18.05;;
40471;SDS011;26174;42.908;23.800;2024-01-15T10:17:51;15.48;;;4.35;;
40471;SDS011;26174;42.908;23.800;2024-01-15T10:20:17;3.47;;;2.08;;
40471;SDS011;26174;42.908;23.800;2024-01-15T10:22:43;7.05;;;3.90;;
40471;SDS011;26174;42.908;23.800;2024-01-15T10:25:13;5.75;;;3.10;;
40471;SDS011;26174;42.908;23.800;2024-01-15T10:27:43;6.07;;;2.83;;
40471;SDS011;26174;42.908;23.800;2024-01-15T10:30:09;4.57;;;2.78;;
40471;SDS011;26174;42.908;23.800;2024-01-15T10:32:35;4.63;;;3.00;;
40471;SDS011;26174;42.908;23.800;2024-01-15T10:35:01;6.75;;;3.47;;
40471;SDS011;26174;42.908;23.800;2024-01-15T10:37:27;7.47;;;4.50;;
40471;SDS011;26174;42.908;23.800;2024-01-15T10:39:52;5.70;;;2.63;;
40471;SDS011;26174;42.908;23.800;2024-01-15T10:42:18;11.70;;;5.05;;
40471;SDS011;26174;42.908;23.800;2024-01-15T10:44:44;4.38;;;2.40;;
40471;SDS011;26174;42.908;23.800;2024-01-15T10:47:12;2.65;;;1.80;;
40471;SDS011;26174;42.908;23.800;2024-01-15T10:49:38;3.78;;;1.83;;
40471;SDS011;26174;42.908;23.800;2024-01-15T10:52:04;5.18;;;2.65;;
40471;SDS011;26174;42.908;23.800;2024-01-15T10:54:31;5.78;;;3.25;;
40471;SDS011;26174;42.908;23.800;2024-01-15T10:56:57;5.35;;;3.22;;
40471;SDS011;26174;42.908;23.800;2024-01-15T10:59:23;5.03;;;2.70;;
40471;SDS011;26174;42.908;23.800;2024-01-15T11:01:49;4.30;;;2.33;;
40471;SDS011;26174;42.908;23.800;2024-01-15T11:04:19;5.10;;;2.90;;
40471;SDS011;26174;42.908;23.800;2024-01-15T11:06:47;2.88;;;1.90;;
40471;SDS011;26174;42.908;23.800;2024-01-15T11:09:15;4.88;;;2.58;;
40471;SDS011;26174;42.908;23.800;2024-01-15T11:11:46;8.10;;;2.30;;
40471;SDS011;26174;42.908;23.800;2024-01-15T11:17:01;3.72;;;2.40;;
40471;SDS011;26174;42.908;23.800;2024-01-15T11:24:56;4.32;;;2.47;;
40471;SDS011;26174;42.908;23.800;2024-01-15T11:27:41;8.98;;;1.83;;
40471;SDS011;26174;42.908;23.800;2024-01-15T11:30:12;5.03;;;2.30;;
40471;SDS011;26174;42.908;23.800;2024-01-15T11:32:39;4.18;;;2.40;;
40471;SDS011;26174;42.908;23.800;2024-01-15T11:35:08;3.78;;;2.30;;
40471;SDS011;26174;42.908;23.800;2024-01-15T11:40:19;5.85;;;2.80;;
40471;SDS011;26174;42.908;23.800;2024-01-15T11:42:47;4.10;;;2.20;;
40471;SDS011;26174;42.908;23.800;2024-01-15T11:45:18;5.13;;;1.75;;
40471;SDS011;26174;42.908;23.800;2024-01-15T11:50:31;13.23;;;6.75;;
40471;SDS011;26174;42.908;23.800;2024-01-15T11:53:01;2.90;;;1.70;;
40471;SDS011;26174;42.908;23.800;2024-01-15T11:57:57;5.13;;;2.65;;
40471;SDS011;26174;42.908;23.800;2024-01-15T12:00:23;4.97;;;2.80;;
40471;SDS011;26174;42.908;23.800;2024-01-15T12:02:49;7.05;;;2.60;;
40471;SDS011;26174;42.908;23.800;2024-01-15T12:05:18;15.88;;;6.90;;
40471;SDS011;26174;42.908;23.800;2024-01-15T12:07:45;4.38;;;2.42;;
40471;SDS011;26174;42.908;23.800;2024-01-15T12:10:13;22.73;;;9.68;;
40471;SDS011;26174;42.908;23.800;2024-01-15T12:15:09;7.32;;;3.83;;
40471;SDS011;26174;42.908;23.800;2024-01-15T12:17:35;7.03;;;3.92;;
40471;SDS011;26174;42.908;23.800;2024-01-15T12:20:03;9.10;;;4.72;;
40471;SDS011;26174;42.908;23.800;2024-01-15T12:22:29;5.00;;;2.65;;
40471;SDS011;26174;42.908;23.800;2024-01-15T12:24:55;2.90;;;2.00;;
40471;SDS011;26174;42.908;23.800;2024-01-15T12:27:21;4.47;;;2.50;;
40471;SDS011;26174;42.908;23.800;2024-01-15T12:29:46;6.30;;;3.05;;
40471;SDS011;26174;42.908;23.800;2024-01-15T12:37:03;6.75;;;3.38;;
40471;SDS011;26174;42.908;23.800;2024-01-15T12:39:29;4.15;;;2.85;;
40471;SDS011;26174;42.908;23.800;2024-01-15T12:41:54;10.80;;;4.53;;
40471;SDS011;26174;42.908;23.800;2024-01-15T12:44:20;6.00;;;3.72;;
40471;SDS011;26174;42.908;23.800;2024-01-15T12:46:46;4.28;;;2.92;;
40471;SDS011;26174;42.908;23.800;2024-01-15T12:49:12;6.55;;;3.25;;
40471;SDS011;26174;42.908;23.800;2024-01-15T12:51:38;3.42;;;2.63;;
40471;SDS011;26174;42.908;23.800;2024-01-15T12:54:04;5.80;;;3.63;;
40471;SDS011;26174;42.908;23.800;2024-01-15T12:56:30;5.03;;;2.70;;
40471;SDS011;26174;42.908;23.800;2024-01-15T12:58:55;5.47;;;2.75;;
40471;SDS011;26174;42.908;23.800;2024-01-15T13:01:21;9.20;;;4.10;;
40471;SDS011;26174;42.908;23.800;2024-01-15T13:03:47;12.65;;;5.57;;
40471;SDS011;26174;42.908;23.800;2024-01-15T13:06:13;4.90;;;2.90;;
40471;SDS011;26174;42.908;23.800;2024-01-15T13:08:38;6.47;;;3.78;;
40471;SDS011;26174;42.908;23.800;2024-01-15T13:11:04;8.48;;;2.78;;
40471;SDS011;26174;42.908;23.800;2024-01-15T13:13:30;28.42;;;15.40;;
40471;SDS011;26174;42.908;23.800;2024-01-15T13:15:59;8.90;;;4.07;;
40471;SDS011;26174;42.908;23.800;2024-01-15T13:18:25;16.77;;;7.82;;
40471;SDS011;26174;42.908;23.800;2024-01-15T13:20:51;8.55;;;5.05;;
40471;SDS011;26174;42.908;23.800;2024-01-15T13:23:16;17.10;;;10.10;;
40471;SDS011;26174;42.908;23.800;2024-01-15T13:25:42;6.75;;;3.72;;
40471;SDS011;26174;42.908;23.800;2024-01-15T13:28:07;19.85;;;12.57;;
40471;SDS011;26174;42.908;23.800;2024-01-15T13:30:33;18.88;;;11.48;;
40471;SDS011;26174;42.908;23.800;2024-01-15T13:32:59;6.22;;;3.33;;
40471;SDS011;26174;42.908;23.800;2024-01-15T13:35:29;11.02;;;5.50;;
40471;SDS011;26174;42.908;23.800;2024-01-15T13:37:55;6.47;;;4.00;;
40471;SDS011;26174;42.908;23.800;2024-01-15T13:40:20;10.15;;;4.50;;
40471;SDS011;26174;42.908;23.800;2024-01-15T13:42:46;11.15;;;5.32;;
40471;SDS011;26174;42.908;23.800;2024-01-15T13:45:12;13.80;;;5.85;;
40471;SDS011;26174;42.908;23.800;2024-01-15T13:47:40;11.35;;;4.20;;
40471;SDS011;26174;42.908;23.800;2024-01-15T13:50:10;9.48;;;4.80;;
40471;SDS011;26174;42.908;23.800;2024-01-15T13:52:35;13.50;;;6.20;;
40471;SDS011;26174;42.908;23.800;2024-01-15T13:55:01;6.47;;;3.83;;
40471;SDS011;26174;42.908;23.800;2024-01-15T13:57:27;5.43;;;3.40;;
40471;SDS011;26174;42.908;23.800;2024-01-15T13:59:52;12.60;;;5.15;;
40471;SDS011;26174;42.908;23.800;2024-01-15T14:02:18;9.38;;;4.95;;
40471;SDS011;26174;42.908;23.800;2024-01-15T14:04:45;7.93;;;4.35;;
40471;SDS011;26174;42.908;23.800;2024-01-15T14:07:11;5.03;;;2.17;;
40471;SDS011;26174;42.908;23.800;2024-01-15T14:09:36;11.27;;;4.80;;
40471;SDS011;26174;42.908;23.800;2024-01-15T14:12:03;6.93;;;3.63;;
40471;SDS011;26174;42.908;23.800;2024-01-15T14:14:28;7.30;;;3.47;;
40471;SDS011;26174;42.908;23.800;2024-01-15T14:16:54;15.40;;;4.20;;
40471;SDS011;26174;42.908;23.800;2024-01-15T14:19:20;4.70;;;2.67;;
40471;SDS011;26174;42.908;23.800;2024-01-15T14:21:46;8.80;;;3.60;;
40471;SDS011;26174;42.908;23.800;2024-01-15T14:24:11;5.13;;;2.85;;
40471;SDS011;26174;42.908;23.800;2024-01-15T14:26:37;6.40;;;3.35;;
40471;SDS011;26174;42.908;23.800;2024-01-15T14:29:02;8.82;;;3.60;;
40471;SDS011;26174;42.908;23.800;2024-01-15T14:31:28;8.35;;;3.58;;
40471;SDS011;26174;42.908;23.800;2024-01-15T14:33:54;10.10;;;4.38;;
40471;SDS011;26174;42.908;23.800;2024-01-15T14:36:23;6.10;;;3.78;;